Time;durP1;ratioP1;P1;durP2;ratioP2;P2;SDS_P1;SDS_P2;PMS_P1;PMS_P2;Temp;Humidity;BMP_temperature;BMP_pressure;BME280_temperature;BME280_humidity;BME280_pressure;Samples;Min_cycle;Max_cycle;Signal;HPM_P1;HPM_P2
2022/07/20 00:00:22;;;;;;;8.63;6.90;;;23.90;99.90;;;;;;5050344;28;21077;-72
2022/07/20 00:03:12;;;;;;;6.33;5.83;;;23.80;99.90;;;;;;5053970;28;20591;-72
2022/07/20 00:06:00;;;;;;;6.90;6.30;;;23.80;99.90;;;;;;5053653;28;20450;-72
2022/07/20 00:11:54;;;;;;;7.10;6.50;;;23.70;99.90;;;;;;5030359;28;20629;-72
2022/07/20 00:14:42;;;;;;;7.40;6.80;;;23.70;99.90;;;;;;5026393;28;20611;-72
2022/07/20 00:17:33;;;;;;;6.73;6.13;;;23.60;99.90;;;;;;5030461;28;20633;-72
2022/07/20 00:20:22;;;;;;;6.90;6.30;;;23.60;99.90;;;;;;5025605;28;20493;-72
2022/07/20 00:23:11;;;;;;;7.17;6.47;;;23.50;99.90;;;;;;5029601;28;20566;-72
2022/07/20 00:25:59;;;;;;;7.40;6.30;;;23.50;99.90;;;;;;5042217;28;20517;-72
2022/07/20 00:28:50;;;;;;;7.40;6.80;;;23.40;99.90;;;;;;5031159;28;20555;-72
2022/07/20 00:31:39;;;;;;;6.43;5.93;;;23.40;99.90;;;;;;5024895;28;20730;-72
2022/07/20 00:34:29;;;;;;;6.97;6.33;;;23.40;99.90;;;;;;5030796;28;20573;-72
2022/07/20 00:37:18;;;;;;;7.10;6.40;;;23.30;99.90;;;;;;5024589;28;20574;-72
2022/07/20 00:40:08;;;;;;;7.80;6.30;;;23.30;99.90;;;;;;5029969;28;20526;-72
2022/07/20 00:42:56;;;;;;;7.40;6.70;;;23.30;99.90;;;;;;5034309;28;21100;-72
2022/07/20 00:45:45;;;;;;;6.57;6.00;;;23.20;99.90;;;;;;5029310;28;20529;-71
2022/07/20 00:48:34;;;;;;;7.70;6.97;;;23.20;99.90;;;;;;5027242;28;20602;-72
2022/07/20 00:51:24;;;;;;;7.27;6.67;;;23.20;99.90;;;;;;5018025;28;20551;-73
2022/07/20 00:54:13;;;;;;;7.23;6.53;;;23.10;99.90;;;;;;5027136;28;21017;-72
2022/07/20 00:57:02;;;;;;;7.33;6.63;;;23.10;99.90;;;;;;5029405;28;20495;-72
2022/07/20 00:59:52;;;;;;;6.77;6.10;;;23.00;99.90;;;;;;5029396;28;20531;-73
2022/07/20 01:02:42;;;;;;;7.43;6.73;;;23.00;99.90;;;;;;5030324;28;20499;-73
2022/07/20 01:05:30;;;;;;;7.10;6.40;;;23.00;99.90;;;;;;5033193;28;20818;-73
2022/07/20 01:08:20;;;;;;;7.57;6.87;;;22.90;99.90;;;;;;5030905;28;20568;-73
2022/07/20 01:11:08;;;;;;;6.97;6.30;;;22.90;99.90;;;;;;5037679;28;20564;-73
2022/07/20 01:14:02;;;;;;;7.00;6.40;;;22.90;99.90;;;;;;5029140;28;20604;-73
2022/07/20 01:16:51;;;;;;;7.03;5.97;;;22.90;99.90;;;;;;5022150;28;20572;-73
2022/07/20 01:19:40;;;;;;;7.50;6.83;;;22.90;99.90;;;;;;5051541;28;20450;-73
2022/07/20 01:22:30;;;;;;;6.93;6.17;;;22.80;99.90;;;;;;5054745;28;21027;-73
2022/07/20 01:25:19;;;;;;;7.57;6.90;;;22.80;99.90;;;;;;5057376;28;21031;-73
2022/07/20 01:28:09;;;;;;;6.77;6.17;;;22.70;99.90;;;;;;5055506;28;20565;-72
2022/07/20 01:30:57;;;;;;;7.93;7.23;;;22.70;99.90;;;;;;5041627;28;20525;-72
2022/07/20 01:36:47;;;;;;;6.60;6.00;;;22.60;99.90;;;;;;5051575;28;20612;-72
2022/07/20 01:39:37;;;;;;;6.80;6.20;;;22.60;99.90;;;;;;5052535;28;20500;-72
2022/07/20 01:42:25;;;;;;;6.77;6.10;;;22.60;99.90;;;;;;5048177;28;20562;-73
2022/07/20 01:45:15;;;;;;;6.80;6.23;;;22.60;99.90;;;;;;5059813;28;21210;-73
2022/07/20 01:48:03;;;;;;;11.07;6.77;;;22.50;99.90;;;;;;5044724;28;20558;-73
2022/07/20 01:50:52;;;;;;;6.90;6.30;;;22.50;99.90;;;;;;5051465;28;21084;-73
2022/07/20 01:53:40;;;;;;;7.07;6.43;;;22.50;99.90;;;;;;5062105;28;20950;-73
2022/07/20 01:56:30;;;;;;;6.60;6.00;;;22.40;99.90;;;;;;5050664;28;20546;-73
2022/07/20 01:59:18;;;;;;;7.10;6.40;;;22.40;99.90;;;;;;5056087;28;20543;-73
2022/07/20 02:02:08;;;;;;;8.03;6.57;;;22.40;99.90;;;;;;5057615;28;20445;-73
2022/07/20 02:04:56;;;;;;;6.40;5.90;;;22.30;99.90;;;;;;5047851;28;20479;-73
2022/07/20 02:07:45;;;;;;;6.80;6.20;;;22.30;99.90;;;;;;5052689;28;20520;-73
2022/07/20 02:10:34;;;;;;;7.57;6.93;;;22.30;99.90;;;;;;5051134;28;20498;-72
2022/07/20 02:13:24;;;;;;;7.07;6.47;;;22.20;99.90;;;;;;5051435;28;20465;-73
2022/07/20 02:16:19;;;;;;;7.27;6.63;;;22.20;99.90;;;;;;5045233;28;20593;-73
2022/07/20 02:19:07;;;;;;;6.70;6.10;;;22.20;99.90;;;;;;5051116;28;20530;-73
2022/07/20 02:21:56;;;;;;;7.67;6.97;;;22.10;99.90;;;;;;5051869;28;20495;-73
2022/07/20 02:24:44;;;;;;;7.70;7.10;;;22.10;99.90;;;;;;5049922;28;20451;-73
2022/07/20 02:27:32;;;;;;;7.20;6.60;;;22.10;99.90;;;;;;5056165;28;20550;-72
2022/07/20 02:30:22;;;;;;;8.07;6.90;;;22.00;99.90;;;;;;5047712;28;20497;-73
2022/07/20 02:33:11;;;;;;;7.13;6.03;;;22.00;99.90;;;;;;5037903;28;20451;-74
2022/07/20 02:35:59;;;;;;;6.80;6.20;;;22.00;99.90;;;;;;5053970;28;21057;-72
2022/07/20 02:38:48;;;;;;;7.27;6.67;;;22.00;99.90;;;;;;5048158;28;20450;-73
2022/07/20 02:41:37;;;;;;;6.97;6.37;;;21.90;99.90;;;;;;5026500;28;20447;-73
2022/07/20 02:44:25;;;;;;;7.03;6.40;;;21.90;99.90;;;;;;5031319;28;20487;-72
2022/07/20 02:47:15;;;;;;;6.73;6.13;;;21.90;99.90;;;;;;5032271;28;20566;-72
2022/07/20 02:50:03;;;;;;;6.97;6.30;;;21.90;99.90;;;;;;5029044;28;20436;-72
2022/07/20 02:52:52;;;;;;;7.53;6.77;;;21.80;99.90;;;;;;5031302;28;21035;-74
2022/07/20 02:55:41;;;;;;;7.47;6.77;;;21.80;99.90;;;;;;5024653;28;20626;-72
2022/07/20 02:58:30;;;;;;;6.93;6.33;;;21.80;99.90;;;;;;5023310;28;20466;-73
2022/07/20 03:01:18;;;;;;;7.43;6.83;;;21.70;99.90;;;;;;5031589;28;20492;-73
2022/07/20 03:04:08;;;;;;;6.97;6.37;;;21.70;99.90;;;;;;5029320;28;20983;-72
2022/07/20 03:06:57;;;;;;;7.80;7.10;;;21.70;99.90;;;;;;5035800;28;20601;-73
2022/07/20 03:09:45;;;;;;;7.07;6.47;;;21.70;99.90;;;;;;5024557;28;20443;-72
2022/07/20 03:12:33;;;;;;;7.33;6.70;;;21.60;99.90;;;;;;5029703;28;20861;-72
2022/07/20 03:15:22;;;;;;;7.83;7.03;;;21.60;99.90;;;;;;5037940;28;20873;-73
2022/07/20 03:18:10;;;;;;;6.77;6.27;;;21.60;99.90;;;;;;5032507;28;20553;-72
2022/07/20 03:20:59;;;;;;;8.20;7.50;;;21.60;99.90;;;;;;5028578;28;20513;-73
2022/07/20 03:23:48;;;;;;;7.47;6.77;;;21.50;99.90;;;;;;5030593;28;20972;-73
2022/07/20 03:26:36;;;;;;;7.70;7.00;;;21.50;99.90;;;;;;5029856;28;20553;-72
2022/07/20 03:29:24;;;;;;;8.10;7.40;;;21.50;99.90;;;;;;5027719;28;20444;-72
2022/07/20 03:32:13;;;;;;;9.13;6.70;;;21.50;99.90;;;;;;5029122;28;20503;-73
2022/07/20 03:35:01;;;;;;;7.63;6.93;;;21.50;99.90;;;;;;5028624;28;20546;-72
2022/07/20 03:37:51;;;;;;;8.23;7.00;;;21.50;99.90;;;;;;5028912;28;20503;-72
2022/07/20 03:40:39;;;;;;;7.47;6.87;;;21.50;99.90;;;;;;5030429;28;20544;-72
2022/07/20 03:43:28;;;;;;;8.70;7.37;;;21.50;99.90;;;;;;5025340;28;20500;-72
2022/07/20 03:46:17;;;;;;;7.53;6.93;;;21.40;99.90;;;;;;5018147;28;20448;-72
2022/07/20 03:49:06;;;;;;;8.07;7.37;;;21.40;99.90;;;;;;5032029;28;20454;-71
2022/07/20 03:51:54;;;;;;;7.53;6.90;;;21.40;99.90;;;;;;5027125;28;20558;-71
2022/07/20 03:54:44;;;;;;;8.53;6.87;;;21.40;99.90;;;;;;5039887;28;20532;-72
2022/07/20 03:57:33;;;;;;;9.53;8.20;;;21.30;99.90;;;;;;5008865;28;20487;-73
2022/07/20 04:00:21;;;;;;;7.80;7.10;;;21.30;99.90;;;;;;5028225;28;20529;-72
2022/07/20 04:03:10;;;;;;;8.03;7.27;;;21.30;99.90;;;;;;5042976;28;20475;-73
2022/07/20 04:05:59;;;;;;;8.00;7.30;;;21.30;99.90;;;;;;5030501;28;20517;-72
2022/07/20 04:08:48;;;;;;;7.80;7.10;;;21.30;99.90;;;;;;5036570;28;20554;-73
2022/07/20 04:11:38;;;;;;;7.87;7.03;;;21.30;99.90;;;;;;5040745;28;20486;-72
2022/07/20 04:14:27;;;;;;;7.70;7.00;;;21.30;99.90;;;;;;5030363;28;20534;-72
2022/07/20 04:17:15;;;;;;;7.50;6.80;;;21.30;99.90;;;;;;5033032;28;20568;-73
2022/07/20 04:20:07;;;;;;;7.83;6.43;;;21.30;99.90;;;;;;5026553;28;20972;-73
2022/07/20 04:22:55;;;;;;;7.53;6.80;;;21.30;99.90;;;;;;5033763;28;20506;-73
2022/07/20 04:25:43;;;;;;;7.27;6.57;;;21.30;99.90;;;;;;5036798;28;20487;-73
2022/07/20 04:28:33;;;;;;;8.10;7.40;;;21.30;99.90;;;;;;5038758;28;20473;-73
2022/07/20 04:31:21;;;;;;;7.20;6.60;;;21.30;99.90;;;;;;5022895;28;20460;-72
2022/07/20 04:34:10;;;;;;;8.03;7.23;;;21.30;99.90;;;;;;5038523;28;20447;-72
2022/07/20 04:36:58;;;;;;;7.90;7.20;;;21.30;99.90;;;;;;5033578;28;20476;-72
2022/07/20 04:39:48;;;;;;;7.90;7.10;;;21.30;99.90;;;;;;5035645;28;20455;-73
2022/07/20 04:42:37;;;;;;;7.90;7.30;;;21.30;99.90;;;;;;5033153;28;20447;-72
2022/07/20 04:45:27;;;;;;;7.77;7.07;;;21.40;99.90;;;;;;5033607;28;20506;-72
2022/07/20 04:48:15;;;;;;;9.27;7.20;;;21.40;99.90;;;;;;5034559;28;20483;-73
2022/07/20 04:51:04;;;;;;;8.20;7.30;;;21.40;99.90;;;;;;5023890;28;20526;-72
2022/07/20 04:53:54;;;;;;;7.97;7.27;;;21.40;99.90;;;;;;5033015;28;20451;-73
2022/07/20 04:56:42;;;;;;;10.40;7.97;;;21.50;99.90;;;;;;5033903;28;20537;-72
2022/07/20 04:59:31;;;;;;;8.30;7.50;;;21.50;99.90;;;;;;5024287;28;20530;-72
2022/07/20 05:02:20;;;;;;;7.40;6.70;;;21.50;99.90;;;;;;5055656;28;20470;-73
2022/07/20 05:05:10;;;;;;;8.70;7.57;;;21.50;99.90;;;;;;5050940;28;20952;-72
2022/07/20 05:07:58;;;;;;;7.70;7.03;;;21.50;99.90;;;;;;5053286;28;20524;-72
2022/07/20 05:10:46;;;;;;;7.73;7.10;;;21.60;99.90;;;;;;5049265;28;20442;-72
2022/07/20 05:13:35;;;;;;;7.87;7.17;;;21.60;99.90;;;;;;5051450;28;20563;-72
2022/07/20 05:16:37;;;;;;;7.93;7.33;;;21.60;99.90;;;;;;5038345;28;20485;-72
2022/07/20 05:19:27;;;;;;;7.80;7.10;;;21.60;99.90;;;;;;5054262;28;20504;-72
2022/07/20 05:22:16;;;;;;;8.43;7.10;;;21.70;99.90;;;;;;5054674;28;20580;-72
2022/07/20 05:25:04;;;;;;;7.70;7.00;;;21.70;99.90;;;;;;5050446;28;20534;-72
2022/07/20 05:27:53;;;;;;;7.37;6.77;;;21.70;99.90;;;;;;5053685;28;20552;-72
2022/07/20 05:30:43;;;;;;;9.23;7.37;;;21.80;99.90;;;;;;5049160;28;20878;-73
2022/07/20 05:33:31;;;;;;;7.83;7.13;;;21.80;99.90;;;;;;5041812;28;20478;-73
2022/07/20 05:36:21;;;;;;;7.20;6.60;;;21.90;99.90;;;;;;5054641;28;20504;-72
2022/07/20 05:39:10;;;;;;;7.43;6.60;;;21.90;99.90;;;;;;5052112;28;20532;-72
2022/07/20 05:42:00;;;;;;;7.83;7.13;;;22.00;99.90;;;;;;5051963;28;20825;-72
2022/07/20 05:44:48;;;;;;;7.60;6.90;;;22.00;99.90;;;;;;5050794;28;20443;-72
2022/07/20 05:47:38;;;;;;;10.73;7.30;;;22.10;99.90;;;;;;5061744;28;20463;-72
2022/07/20 05:50:27;;;;;;;8.83;6.80;;;22.10;99.90;;;;;;5051490;28;20470;-72
2022/07/20 05:53:18;;;;;;;8.30;7.50;;;22.20;99.90;;;;;;5059209;28;20475;-72
2022/07/20 05:56:07;;;;;;;8.10;7.40;;;22.20;99.90;;;;;;5052387;28;20455;-72
2022/07/20 05:58:56;;;;;;;7.93;7.10;;;22.30;99.90;;;;;;5054676;28;20812;-72
2022/07/20 06:01:45;;;;;;;7.30;6.70;;;22.30;99.90;;;;;;5046763;28;21014;-72
2022/07/20 06:04:38;;;;;;;8.40;6.53;;;22.40;99.90;;;;;;5047690;28;20484;-72
2022/07/20 06:07:26;;;;;;;7.43;6.83;;;22.50;99.90;;;;;;5039480;28;20467;-72
2022/07/20 06:10:16;;;;;;;7.87;7.13;;;22.60;99.90;;;;;;5030186;28;20450;-72
2022/07/20 06:13:05;;;;;;;7.53;6.70;;;22.60;99.90;;;;;;5028293;28;20554;-72
2022/07/20 06:15:57;;;;;;;11.83;7.20;;;22.70;99.90;;;;;;5050029;28;20518;-72
2022/07/20 06:18:45;;;;;;;7.60;6.90;;;22.80;99.90;;;;;;5044414;28;20447;-72
2022/07/20 06:21:35;;;;;;;7.37;6.73;;;22.80;99.90;;;;;;5047479;28;20949;-72
2022/07/20 06:24:23;;;;;;;7.83;7.03;;;22.90;99.90;;;;;;5046841;28;20538;-72
2022/07/20 06:27:13;;;;;;;7.80;7.00;;;23.00;99.90;;;;;;5047819;28;20569;-73
2022/07/20 06:30:01;;;;;;;6.83;6.37;;;23.10;99.90;;;;;;5045951;28;20450;-72
2022/07/20 06:32:50;;;;;;;9.47;7.43;;;23.20;99.90;;;;;;5053296;28;20568;-72
2022/07/20 06:35:38;;;;;;;9.60;7.40;;;23.30;99.90;;;;;;5055578;28;20949;-72
2022/07/20 06:38:27;;;;;;;11.37;7.43;;;23.40;99.90;;;;;;5051228;28;20854;-71
2022/07/20 06:41:15;;;;;;;7.90;7.20;;;23.50;99.90;;;;;;5047545;28;20466;-71
2022/07/20 06:44:05;;;;;;;8.70;7.20;;;23.60;99.90;;;;;;5049536;28;20509;-71
2022/07/20 06:46:54;;;;;;;8.13;7.13;;;23.70;99.90;;;;;;5047791;28;20486;-72
2022/07/20 06:49:45;;;;;;;8.77;6.77;;;23.80;99.90;;;;;;5046272;28;20952;-72
2022/07/20 06:52:34;;;;;;;8.23;7.43;;;23.80;99.90;;;;;;5049611;28;20467;-72
2022/07/20 06:55:24;;;;;;;8.03;7.23;;;23.90;99.90;;;;;;5050665;28;20442;-72
2022/07/20 06:58:12;;;;;;;7.43;6.70;;;24.10;99.90;;;;;;5059002;28;20607;-72
2022/07/20 07:01:02;;;;;;;8.07;7.30;;;24.20;99.90;;;;;;5045667;28;20493;-72
2022/07/20 07:03:50;;;;;;;8.53;7.20;;;24.20;99.90;;;;;;5053137;28;20517;-71
2022/07/20 07:06:39;;;;;;;7.50;6.80;;;24.30;99.90;;;;;;5054048;28;20902;-72
2022/07/20 07:09:27;;;;;;;7.67;7.07;;;24.40;99.90;;;;;;5051675;28;20534;-74
2022/07/20 07:12:15;;;;;;;7.50;6.83;;;24.40;99.90;;;;;;5057894;28;20534;-74
2022/07/20 07:15:04;;;;;;;9.37;7.10;;;24.50;99.90;;;;;;5053328;28;20584;-74
2022/07/20 07:17:54;;;;;;;8.63;7.67;;;24.60;99.90;;;;;;5053536;28;20559;-74
2022/07/20 07:20:42;;;;;;;8.20;6.57;;;24.70;99.90;;;;;;5056022;28;20464;-74
2022/07/20 07:23:30;;;;;;;7.03;6.43;;;24.80;99.90;;;;;;5054479;28;20457;-74
2022/07/20 07:26:23;;;;;;;6.97;6.27;;;24.80;99.90;;;;;;5042773;28;21013;-74
2022/07/20 07:29:14;;;;;;;9.00;6.73;;;24.90;99.90;;;;;;5043331;28;20504;-74
2022/07/20 07:32:02;;;;;;;7.40;6.73;;;25.00;99.90;;;;;;5037244;28;20997;-73
2022/07/20 07:34:54;;;;;;;10.10;6.90;;;25.10;99.90;;;;;;5051881;28;20469;-73
2022/07/20 07:37:43;;;;;;;7.77;7.17;;;25.20;99.90;;;;;;5049946;28;20498;-73
2022/07/20 07:40:32;;;;;;;7.57;6.87;;;25.40;99.90;;;;;;5056161;28;20906;-73
2022/07/20 07:43:20;;;;;;;7.67;6.90;;;25.50;99.90;;;;;;5053288;28;20490;-74
2022/07/20 07:46:08;;;;;;;11.60;8.20;;;25.60;99.90;;;;;;5058952;28;20454;-74
2022/07/20 07:48:56;;;;;;;8.03;6.93;;;25.80;99.90;;;;;;5053174;28;20462;-73
2022/07/20 07:51:46;;;;;;;9.23;8.33;;;25.80;99.90;;;;;;5054733;28;20525;-73
2022/07/20 07:54:34;;;;;;;10.43;7.70;;;25.90;99.90;;;;;;5059840;28;20481;-73
2022/07/20 07:57:23;;;;;;;8.17;7.37;;;26.00;99.90;;;;;;5055122;28;20561;-73
2022/07/20 08:00:15;;;;;;;8.57;7.57;;;26.10;99.90;;;;;;5058918;28;20447;-73
2022/07/20 08:03:04;;;;;;;7.50;6.80;;;26.20;99.90;;;;;;5056064;28;20446;-73
2022/07/20 08:05:52;;;;;;;8.43;7.63;;;26.30;99.90;;;;;;5055134;28;20482;-73
2022/07/20 08:08:42;;;;;;;8.33;7.53;;;26.40;99.90;;;;;;5052622;28;20507;-73
2022/07/20 08:11:30;;;;;;;7.80;6.73;;;26.50;99.90;;;;;;5058058;28;20861;-73
2022/07/20 08:14:19;;;;;;;9.23;7.50;;;26.60;99.90;;;;;;5053261;28;21010;-73
2022/07/20 08:17:08;;;;;;;7.33;6.60;;;26.70;99.90;;;;;;5054625;28;21135;-73
2022/07/20 08:19:57;;;;;;;7.60;6.90;;;26.80;99.90;;;;;;5055890;28;20477;-73
2022/07/20 08:22:46;;;;;;;9.73;7.57;;;26.90;99.90;;;;;;5055297;28;20544;-74
2022/07/20 08:25:36;;;;;;;8.80;7.17;;;27.00;99.90;;;;;;5062942;28;20995;-74
2022/07/20 08:28:24;;;;;;;7.97;7.27;;;27.10;99.90;;;;;;5056088;28;20543;-73
2022/07/20 08:31:13;;;;;;;8.10;7.30;;;27.20;99.90;;;;;;5061010;28;20458;-74
2022/07/20 08:34:02;;;;;;;8.33;7.47;;;27.20;99.90;;;;;;5042593;28;20483;-73
2022/07/20 08:36:50;;;;;;;7.60;7.00;;;27.40;99.90;;;;;;5058780;28;20551;-73
2022/07/20 08:39:39;;;;;;;9.23;7.63;;;27.50;99.90;;;;;;5057686;28;20455;-74
2022/07/20 08:42:31;;;;;;;7.70;7.00;;;27.60;99.90;;;;;;5055374;28;20454;-73
2022/07/20 08:45:19;;;;;;;8.20;7.40;;;27.70;99.90;;;;;;5044739;28;20536;-73
2022/07/20 08:48:08;;;;;;;8.47;7.10;;;27.80;99.90;;;;;;5063697;28;20824;-73
2022/07/20 08:50:56;;;;;;;8.40;7.60;;;27.90;99.90;;;;;;5052650;28;20546;-73
2022/07/20 08:53:45;;;;;;;7.90;7.40;;;28.00;99.90;;;;;;5054880;28;20544;-73
2022/07/20 08:56:36;;;;;;;7.97;7.20;;;28.10;99.90;;;;;;5061753;28;20568;-74
2022/07/20 08:59:25;;;;;;;7.80;7.10;;;28.20;99.90;;;;;;5054754;28;20528;-73
2022/07/20 09:02:14;;;;;;;12.20;7.60;;;28.30;99.90;;;;;;5048490;28;21031;-73
2022/07/20 09:05:02;;;;;;;8.00;7.33;;;28.40;99.90;;;;;;5059215;28;20511;-73
2022/07/20 09:10:47;;;;;;;7.93;7.33;;;28.60;99.90;;;;;;5128382;27;20544;-74
2022/07/20 09:13:42;;;;;;;8.73;7.80;;;28.70;99.90;;;;;;5126045;27;20966;-74
2022/07/20 09:16:36;;;;;;;8.23;7.40;;;28.80;99.90;;;;;;5126219;27;20891;-74
2022/07/20 09:19:24;;;;;;;9.17;6.90;;;28.80;99.90;;;;;;5119726;27;20428;-74
2022/07/20 09:22:29;;;;;;;8.03;7.20;;;28.90;99.90;;;;;;5120844;27;20962;-74
2022/07/20 09:25:23;;;;;;;13.50;8.43;;;29.10;99.90;;;;;;5118917;27;20447;-74
2022/07/20 09:28:12;;;;;;;8.20;7.53;;;29.10;99.90;;;;;;5113010;27;20476;-73
2022/07/20 09:31:01;;;;;;;8.03;7.23;;;29.20;99.90;;;;;;5111009;28;20447;-74
2022/07/20 09:34:15;;;;;;;10.20;8.27;;;29.30;99.90;;;;;;5111370;27;20451;-73
2022/07/20 09:37:16;;;;;;;8.00;7.33;;;29.40;99.90;;;;;;5116052;27;20500;-74
2022/07/20 09:40:06;;;;;;;8.13;7.47;;;29.50;99.90;;;;;;5114789;27;20448;-75
2022/07/20 09:42:55;;;;;;;9.87;7.50;;;29.70;99.90;;;;;;5112734;27;20444;-75
2022/07/20 09:45:44;;;;;;;8.10;7.40;;;29.80;99.90;;;;;;5118628;27;20903;-75
2022/07/20 09:48:40;;;;;;;8.27;7.43;;;29.90;99.90;;;;;;5116923;27;20456;-75
2022/07/20 09:51:30;;;;;;;8.30;7.50;;;29.90;99.90;;;;;;5115746;27;20467;-75
2022/07/20 09:54:20;;;;;;;8.57;7.80;;;30.00;99.90;;;;;;5115093;27;20816;-74
2022/07/20 09:57:10;;;;;;;8.47;7.80;;;30.20;99.90;;;;;;5113146;27;21022;-74
2022/07/20 09:59:58;;;;;;;8.00;7.30;;;30.30;99.90;;;;;;5114912;27;20951;-74
2022/07/20 10:02:50;;;;;;;9.73;7.80;;;30.30;99.90;;;;;;5112641;27;20444;-75
2022/07/20 10:05:39;;;;;;;8.23;7.50;;;30.50;99.90;;;;;;5115943;27;20447;-74
2022/07/20 10:08:29;;;;;;;8.37;7.67;;;30.70;99.90;;;;;;5116071;27;20550;-74
2022/07/20 10:11:18;;;;;;;12.03;8.10;;;30.70;99.90;;;;;;5117259;27;20554;-75
2022/07/20 10:14:08;;;;;;;8.30;7.50;;;30.90;99.90;;;;;;5110749;27;20585;-75
2022/07/20 10:16:57;;;;;;;8.27;7.50;;;30.90;99.90;;;;;;5111169;27;20521;-74
2022/07/20 10:19:50;;;;;;;8.10;7.50;;;31.00;99.90;;;;;;5108766;27;20521;-74
2022/07/20 10:22:38;;;;;;;8.13;7.40;;;31.10;99.90;;;;;;5127620;27;20470;-74
2022/07/20 10:25:31;;;;;;;9.30;8.40;;;31.30;99.90;;;;;;5132944;27;20454;-74
2022/07/20 10:28:28;;;;;;;8.43;7.70;;;31.40;99.90;;;;;;5127094;27;20510;-75
2022/07/20 10:31:17;;;;;;;10.03;6.77;;;31.50;99.90;;;;;;5128454;27;20631;-74
2022/07/20 10:34:06;;;;;;;7.93;7.13;;;31.60;99.90;;;;;;5126024;27;20439;-75
2022/07/20 10:37:26;;;;;;;8.17;7.37;;;31.70;99.90;;;;;;5133543;27;20524;-74
2022/07/20 10:40:21;;;;;;;7.40;6.63;;;31.80;99.90;;;;;;5122422;27;20530;-75
2022/07/20 10:43:14;;;;;;;8.00;7.30;;;32.00;99.90;;;;;;5127971;27;20541;-74
2022/07/20 10:46:32;;;;;;;7.80;7.10;;;32.10;99.90;;;;;;5137587;27;20451;-74
2022/07/20 10:49:44;;;;;;;7.40;6.90;;;32.30;99.90;;;;;;5127892;27;20432;-74
2022/07/20 10:52:34;;;;;;;7.73;7.03;;;32.30;99.90;;;;;;5123359;27;20474;-75
2022/07/20 10:55:58;;;;;;;7.80;7.20;;;32.40;99.90;;;;;;5127193;27;20488;-75
2022/07/20 10:58:47;;;;;;;7.37;6.77;;;32.60;99.90;;;;;;5016628;28;20528;-75
2022/07/20 11:01:37;;;;;;;7.40;6.47;;;32.60;99.90;;;;;;5016212;28;20452;-75
2022/07/20 11:04:25;;;;;;;8.07;7.23;;;32.80;99.90;;;;;;5121802;27;20508;-74
2022/07/20 11:07:31;;;;;;;7.47;6.77;;;32.90;99.90;;;;;;5127612;27;20987;-75
2022/07/20 11:10:23;;;;;;;6.50;6.00;;;33.10;99.10;;;;;;5128355;27;20481;-75
2022/07/20 11:13:16;;;;;;;6.83;6.13;;;33.20;97.70;;;;;;5124174;27;20439;-75
2022/07/20 11:16:05;;;;;;;6.80;6.30;;;33.30;96.50;;;;;;5127945;27;20974;-74
2022/07/20 11:18:56;;;;;;;6.67;6.10;;;33.40;97.80;;;;;;5130384;27;20546;-75
2022/07/20 11:21:45;;;;;;;6.20;5.80;;;33.40;98.10;;;;;;5117292;27;20439;-75
2022/07/20 11:24:33;;;;;;;8.07;6.03;;;33.60;96.50;;;;;;5122116;27;20593;-75
2022/07/20 11:27:22;;;;;;;6.50;5.90;;;33.70;97.00;;;;;;5127204;27;20603;-75
2022/07/20 11:30:13;;;;;;;7.83;5.50;;;34.00;92.30;;;;;;5129519;27;20476;-75
2022/07/20 11:33:02;;;;;;;8.00;5.67;;;34.10;94.00;;;;;;5125090;27;20489;-75
2022/07/20 11:35:51;;;;;;;6.80;6.17;;;34.10;94.00;;;;;;5128964;27;20443;-75
2022/07/20 11:38:41;;;;;;;6.67;6.17;;;34.20;92.80;;;;;;5127680;27;20928;-75
2022/07/20 11:41:34;;;;;;;5.93;5.43;;;34.30;91.60;;;;;;5124052;27;20800;-75
2022/07/20 11:44:23;;;;;;;6.27;5.67;;;34.40;93.00;;;;;;5133403;27;20970;-75
2022/07/20 11:47:13;;;;;;;6.40;5.80;;;34.50;91.60;;;;;;5111804;28;20468;-75
2022/07/20 11:50:10;;;;;;;9.30;6.93;;;34.70;91.60;;;;;;5134234;27;20566;-75
2022/07/20 11:53:22;;;;;;;7.17;6.57;;;34.80;90.00;;;;;;5135955;27;20530;-75
2022/07/20 11:56:14;;;;;;;6.10;5.60;;;34.90;86.00;;;;;;5135066;27;20533;-75
2022/07/20 11:59:05;;;;;;;10.10;6.70;;;35.10;87.80;;;;;;5130363;27;20522;-75
2022/07/20 12:01:55;;;;;;;6.63;6.00;;;35.20;85.00;;;;;;5129276;27;20848;-75
2022/07/20 12:04:45;;;;;;;6.50;5.93;;;35.30;86.70;;;;;;5130058;27;20442;-75
2022/07/20 12:10:49;;;;;;;6.10;5.50;;;35.60;83.80;;;;;;5131285;27;20976;-75
2022/07/20 12:13:45;;;;;;;6.70;5.50;;;35.60;80.10;;;;;;5124303;27;20576;-76
2022/07/20 12:16:45;;;;;;;6.40;5.90;;;35.80;79.10;;;;;;5129034;27;21047;-75
2022/07/20 12:19:35;;;;;;;8.80;5.70;;;36.00;76.30;;;;;;5137376;27;20438;-75
2022/07/20 12:22:27;;;;;;;5.83;5.30;;;36.10;81.00;;;;;;5129630;27;20529;-74
2022/07/20 12:25:15;;;;;;;6.60;6.10;;;36.20;76.30;;;;;;5133788;27;20446;-75
2022/07/20 12:28:04;;;;;;;6.00;5.50;;;36.30;74.20;;;;;;5128413;27;20447;-75
2022/07/20 12:30:53;;;;;;;6.30;5.80;;;36.30;74.80;;;;;;5123158;27;20481;-75
2022/07/20 12:34:04;;;;;;;6.53;6.03;;;36.40;79.30;;;;;;5131400;27;20520;-75
2022/07/20 12:36:52;;;;;;;6.97;6.07;;;36.60;75.70;;;;;;5126671;27;21263;-75
2022/07/20 12:39:47;;;;;;;6.87;6.17;;;36.70;75.30;;;;;;5128041;27;20430;-75
2022/07/20 12:42:36;;;;;;;5.60;5.20;;;36.70;78.00;;;;;;5126243;27;20447;-75
2022/07/20 12:45:27;;;;;;;6.00;5.43;;;36.80;72.50;;;;;;5117181;27;20446;-75
2022/07/20 12:48:15;;;;;;;6.57;6.07;;;36.90;71.20;;;;;;5133244;27;20554;-75
2022/07/20 12:51:10;;;;;;;5.50;5.10;;;37.00;66.80;;;;;;5128000;27;20505;-75
2022/07/20 12:53:58;;;;;;;8.17;5.93;;;37.10;66.20;;;;;;5138625;27;20448;-75
2022/07/20 12:56:48;;;;;;;5.90;5.23;;;37.20;66.00;;;;;;5122699;27;20481;-75
2022/07/20 12:59:37;;;;;;;5.80;5.40;;;37.40;62.10;;;;;;5128641;27;20996;-75
2022/07/20 13:02:25;;;;;;;5.93;5.50;;;37.60;62.20;;;;;;5130088;27;20443;-76
2022/07/20 13:05:13;;;;;;;5.30;4.90;;;37.70;61.90;;;;;;5120359;27;20969;-75
2022/07/20 13:10:49;;;;;;;5.27;4.87;;;37.90;59.40;;;;;;5067189;28;20489;-93
2022/07/20 13:13:41;;;;;;;5.97;5.43;;;38.00;58.60;;;;;;5077925;28;20481;-93
2022/07/20 13:16:34;;;;;;;5.50;5.20;;;38.10;58.20;;;;;;5070207;28;20598;-93
2022/07/20 13:19:25;;;;;;;5.40;4.90;;;38.10;58.40;;;;;;5076138;28;20468;-93
2022/07/20 13:22:14;;;;;;;5.43;4.97;;;38.20;56.40;;;;;;5063777;28;20453;-92
2022/07/20 13:25:05;;;;;;;5.30;4.63;;;38.20;57.30;;;;;;5110296;22;20228;-74
2022/07/20 13:27:55;;;;;;;5.17;4.80;;;38.30;57.70;;;;;;5127453;28;20526;-74
2022/07/20 13:30:45;;;;;;;5.60;5.17;;;38.40;56.50;;;;;;5100291;28;20528;-74
2022/07/20 13:33:35;;;;;;;5.57;5.20;;;38.60;56.70;;;;;;5105395;28;20527;-74
2022/07/20 13:36:23;;;;;;;5.67;5.20;;;38.60;54.80;;;;;;5108688;28;20201;-74
2022/07/20 13:39:12;;;;;;;5.55;5.05;;;38.70;54.20;;;;;;5102356;28;20217;-74
2022/07/20 13:42:00;;;;;;;5.53;5.13;;;38.70;56.80;;;;;;5109053;28;20657;-73
2022/07/20 13:44:49;;;;;;;5.55;5.18;;;38.90;55.20;;;;;;5104008;28;20200;-74
2022/07/20 13:47:42;;;;;;;5.20;4.80;;;39.10;55.20;;;;;;5104886;28;20753;-74
2022/07/20 13:50:31;;;;;;;5.05;4.65;;;39.20;55.90;;;;;;5102957;28;20193;-74
2022/07/20 13:53:40;;;;;;;5.55;5.05;;;39.40;57.90;;;;;;5107006;28;20201;-74
2022/07/20 13:56:30;;;;;;;5.20;4.80;;;39.40;56.30;;;;;;5112071;27;20303;-74
2022/07/20 13:59:18;;;;;;;6.43;5.32;;;39.50;53.70;;;;;;5110764;28;20224;-74
2022/07/20 14:02:07;;;;;;;5.38;4.90;;;39.70;53.80;;;;;;5111285;28;20551;-74
2022/07/20 14:04:57;;;;;;;5.53;5.03;;;39.80;53.40;;;;;;5113312;28;20205;-74
2022/07/20 14:07:45;;;;;;;5.43;5.03;;;40.00;51.70;;;;;;5103550;28;20299;-74
2022/07/20 14:10:34;;;;;;;4.90;4.40;;;40.10;52.90;;;;;;5108813;28;20256;-74
2022/07/20 14:13:23;;;;;;;7.47;6.10;;;;;;;;;;5109778;28;20193;-74
2022/07/20 14:16:12;;;;;;;5.45;5.03;;;;;;;;;;5111996;28;20239;-74
2022/07/20 14:19:01;;;;;;;5.30;4.82;;;;;;;;;;5100448;28;20312;-74
2022/07/20 14:21:50;;;;;;;5.45;4.95;;;;;;;;;;5106062;28;20238;-74
2022/07/20 14:24:39;;;;;;;5.70;5.20;;;;;;;;;;5105781;28;20209;-74
2022/07/20 14:27:28;;;;;;;5.70;4.88;;;;;;;;;;5107486;28;20323;-74
2022/07/20 14:30:18;;;;;;;5.70;5.18;;;;;;;;;;5109705;28;20258;-74
2022/07/20 14:33:07;;;;;;;6.03;5.05;;;;;;;;;;5106168;28;20354;-74
2022/07/20 14:35:56;;;;;;;5.55;5.15;;;;;;;;;;5103523;28;20232;-74
2022/07/20 14:38:46;;;;;;;5.03;4.72;;;;;;;;;;5110728;27;20221;-74
2022/07/20 14:41:35;;;;;;;5.13;4.72;;;;;;;;;;5111498;28;20204;-74
2022/07/20 14:44:25;;;;;;;9.38;8.20;;;;;;;;;;5113062;28;20324;-74
2022/07/20 14:47:14;;;;;;;9.73;8.82;;;;;;;;;;5099417;27;20281;-74
2022/07/20 14:50:10;;;;;;;12.18;9.85;;;;;;;;;;5110532;28;20712;-74
2022/07/20 14:52:58;;;;;;;10.50;9.55;;;;;;;;;;5109172;28;20225;-74
2022/07/20 14:55:55;;;;;;;12.07;11.10;;;;;;;;;;5102979;28;20254;-74
2022/07/20 14:58:44;;;;;;;11.77;10.77;;;;;;;;;;5105266;28;20466;-74
2022/07/20 15:01:35;;;;;;;13.20;12.10;;;;;;;;;;5111315;28;20536;-74
2022/07/20 15:04:23;;;;;;;14.23;12.83;;;;;;;;;;5103677;27;20444;-74
2022/07/20 15:07:12;;;;;;;14.33;11.90;;;;;;;;;;5103003;28;20577;-73